createdAt,value
2017-06-11T00:00:57.213Z,67.92
2017-06-11T00:01:57.198Z,68.12
2017-06-11T00:02:57.174Z,67.99
2017-06-11T00:03:57.156Z,67.89
2017-06-11T00:04:57.136Z,67.83
2017-06-11T00:05:57.111Z,67.92
2017-06-11T00:06:57.102Z,67.73
2017-06-11T00:07:57.079Z,68.12
2017-06-11T00:08:57.054Z,67.73
2017-06-11T00:09:57.032Z,67.54
2017-06-11T00:10:57.017Z,67.99
2017-06-11T00:11:56.995Z,67.73
2017-06-11T00:12:56.973Z,67.54
2017-06-11T00:13:56.953Z,67.79
2017-06-11T00:14:56.935Z,67.69
2017-06-11T00:15:56.912Z,68.46
2017-06-11T00:16:56.901Z,67.79
2017-06-11T00:17:56.877Z,68.12
2017-06-11T00:18:56.853Z,68.21
2017-06-11T00:19:56.834Z,68.02
2017-06-11T00:20:56.863Z,68.12
2017-06-11T00:21:56.793Z,68.75
2017-06-11T00:22:56.775Z,68.56
2017-06-11T00:23:56.755Z,68.46
2017-06-11T00:24:56.742Z,67.99
2017-06-11T00:25:56.712Z,68.08
2017-06-11T00:26:56.702Z,68.46
2017-06-11T00:27:56.722Z,68.56
2017-06-11T00:28:56.651Z,68.37
2017-06-11T00:29:56.634Z,68.18
2017-06-11T00:30:56.610Z,69.04
2017-06-11T00:31:56.598Z,68.85
2017-06-11T00:32:56.578Z,68.95
2017-06-11T00:33:56.553Z,68.85
2017-06-11T00:34:56.534Z,69.04
2017-06-11T00:35:56.510Z,68.66
2017-06-11T00:36:56.490Z,69.04
2017-06-11T00:37:56.474Z,68.95
2017-06-11T00:38:56.730Z,69.13
2017-06-11T00:39:56.434Z,68.85
2017-06-11T00:40:56.413Z,68.85
2017-06-11T00:41:56.393Z,69.04
2017-06-11T00:42:56.370Z,68.85
2017-06-11T00:43:56.352Z,69.52
2017-06-11T00:44:56.334Z,69.42
2017-06-11T00:45:56.309Z,69.42
2017-06-11T00:46:56.291Z,69.23
2017-06-11T00:47:56.270Z,69.42
2017-06-11T00:48:56.257Z,69.62
2017-06-11T00:49:56.237Z,69.42
2017-06-11T00:50:56.210Z,69.71
2017-06-11T00:51:56.193Z,69.87
2017-06-11T00:52:56.171Z,69.62
2017-06-11T00:53:56.149Z,69.68
2017-06-11T00:54:56.129Z,69.77
2017-06-11T00:55:56.108Z,70.35
2017-06-11T00:56:56.336Z,70.35
2017-06-11T00:57:56.068Z,70.25
2017-06-11T00:58:56.048Z,70.25
2017-06-11T00:59:56.028Z,70.35
2017-06-11T01:00:56.004Z,70.35
2017-06-11T01:01:55.993Z,70.73
2017-06-11T01:02:55.969Z,70.54
2017-06-11T01:03:55.997Z,70.35
2017-06-11T01:04:55.927Z,70.35
2017-06-11T01:05:55.904Z,70.15
2017-06-11T01:06:55.889Z,70.44
2017-06-11T01:07:55.862Z,70.92
2017-06-11T01:08:55.848Z,71.02
2017-06-11T01:09:55.830Z,70.83
2017-06-11T01:10:55.502Z,70.83
2017-06-11T01:11:55.783Z,71.21
2017-06-11T01:12:55.767Z,71.4
2017-06-11T01:13:55.744Z,71.31
2017-06-11T01:14:55.735Z,71.11
2017-06-11T01:15:55.702Z,71.21
2017-06-11T01:16:56.183Z,71.21
2017-06-11T01:17:55.661Z,71.31
2017-06-11T01:18:55.640Z,71.11
2017-06-11T01:19:55.623Z,71.11
2017-06-11T01:20:55.601Z,71.5
2017-06-11T01:21:55.583Z,72.07
2017-06-11T01:22:55.563Z,71.21
2017-06-11T01:23:55.543Z,71.88
2017-06-11T01:24:55.520Z,71.88
2017-06-11T01:25:55.504Z,71.56
2017-06-11T01:26:55.481Z,71.69
2017-06-11T01:27:55.465Z,71.88
2017-06-11T01:28:55.444Z,72.13
2017-06-11T01:29:55.121Z,72.03
2017-06-11T01:30:55.398Z,72.27
2017-06-11T01:31:55.386Z,72.03
2017-06-11T01:32:55.055Z,72.17
2017-06-11T01:33:55.339Z,72.45
2017-06-11T01:34:55.317Z,72.17
2017-06-11T01:35:55.297Z,72.32
2017-06-11T01:36:55.276Z,72.27
2017-06-11T01:37:55.254Z,72.07
2017-06-11T01:38:55.234Z,72.13
2017-06-11T01:39:55.217Z,72.52
2017-06-11T01:40:55.195Z,72.61
2017-06-11T01:41:55.172Z,72.61
2017-06-11T01:42:55.155Z,72.71
2017-06-11T01:43:55.138Z,72.99
2017-06-11T01:44:55.111Z,72.71
2017-06-11T01:45:55.091Z,72.32
2017-06-11T01:46:55.074Z,72.71
2017-06-11T01:47:55.061Z,72.61
2017-06-11T01:48:55.034Z,72.94
2017-06-11T01:49:55.012Z,72.9
2017-06-11T01:50:54.993Z,72.9
2017-06-11T01:51:54.974Z,72.64
2017-06-11T01:52:54.949Z,72.8
2017-06-11T01:53:54.932Z,72.84
2017-06-11T01:54:54.610Z,72.8
2017-06-11T01:55:54.896Z,72.9
2017-06-11T01:56:54.872Z,72.64
2017-06-11T01:57:54.853Z,72.74
2017-06-11T01:58:54.832Z,72.74
2017-06-11T01:59:54.812Z,72.94
2017-06-11T02:00:54.789Z,72.74
2017-06-11T02:01:54.768Z,72.74
2017-06-11T02:02:54.748Z,72.74
2017-06-11T02:03:54.725Z,72.27
2017-06-11T02:04:54.710Z,72.74
2017-06-11T02:05:54.684Z,72.17
2017-06-11T02:06:54.667Z,72.94
2017-06-11T02:07:54.651Z,72.45
2017-06-11T02:08:54.630Z,72.45
2017-06-11T02:09:54.606Z,72.27
2017-06-11T02:10:54.585Z,72.74
2017-06-11T02:11:54.570Z,72.27
2017-06-11T02:12:54.248Z,72.74
2017-06-11T02:13:54.525Z,72.74
2017-06-11T02:14:54.506Z,72.84
2017-06-11T02:15:54.491Z,72.94
2017-06-11T02:16:54.466Z,72.74
2017-06-11T02:17:54.445Z,72.55
2017-06-11T02:18:54.475Z,72.74
2017-06-11T02:19:54.412Z,72.74
2017-06-11T02:20:54.434Z,72.84
2017-06-11T02:21:54.366Z,72.74
2017-06-11T02:22:54.349Z,72.55
2017-06-11T02:23:54.325Z,72.64
2017-06-11T02:24:54.308Z,73.13
2017-06-11T02:25:53.982Z,73.03
2017-06-11T02:26:54.265Z,73.19
2017-06-11T02:27:54.240Z,73.03
2017-06-11T02:28:54.220Z,73.28
2017-06-11T02:29:54.205Z,73.03
2017-06-11T02:30:54.201Z,73.09
2017-06-11T02:31:54.196Z,73.38
2017-06-11T02:32:54.161Z,73.47
2017-06-11T02:33:54.127Z,73.38
2017-06-11T02:34:54.106Z,73.28
2017-06-11T02:35:54.129Z,73.19
2017-06-11T02:36:54.066Z,73.76
2017-06-11T02:37:54.037Z,73.66
2017-06-11T02:38:54.034Z,73.95
2017-06-11T02:39:54.001Z,73.86
2017-06-11T02:40:53.980Z,73.57
2017-06-11T02:41:53.959Z,73.47
2017-06-11T02:42:53.940Z,74.24
2017-06-11T02:43:53.921Z,74.05
2017-06-11T02:44:53.904Z,74.33
2017-06-11T02:45:53.935Z,74.33
2017-06-11T02:46:53.857Z,74.43
2017-06-11T02:47:53.838Z,74.15
2017-06-11T02:48:54.036Z,74.15
2017-06-11T02:49:53.795Z,74.15
2017-06-11T02:50:53.774Z,74.33
2017-06-11T02:51:53.757Z,74.82
2017-06-11T02:52:53.734Z,74.33
2017-06-11T02:53:53.718Z,74.33
2017-06-11T02:54:53.694Z,74.52
2017-06-11T02:55:53.679Z,74.24
2017-06-11T02:56:53.651Z,74.33
2017-06-11T02:57:53.632Z,74.62
2017-06-11T02:58:53.610Z,74.62
2017-06-11T02:59:53.645Z,74.24
2017-06-11T03:00:53.578Z,74.72
2017-06-11T03:01:53.555Z,74.72
2017-06-11T03:02:53.534Z,74.52
2017-06-11T03:03:53.512Z,75.01
2017-06-11T03:04:53.492Z,74.72
2017-06-11T03:05:53.470Z,74.82
2017-06-11T03:06:53.447Z,74.91
2017-06-11T03:07:53.430Z,74.91
2017-06-11T03:08:53.411Z,75.01
2017-06-11T03:09:53.387Z,74.82
2017-06-11T03:10:53.372Z,74.72
2017-06-11T03:11:53.348Z,74.62
2017-06-11T03:12:53.329Z,74.62
2017-06-11T03:13:53.312Z,74.43
2017-06-11T03:14:53.291Z,74.62
2017-06-11T03:15:53.268Z,74.62
2017-06-11T03:16:53.249Z,74.72
2017-06-11T03:17:53.223Z,74.72
2017-06-11T03:18:53.204Z,74.82
2017-06-11T03:19:53.189Z,74.62
2017-06-11T03:20:53.170Z,75.2
2017-06-11T03:21:53.148Z,74.72
2017-06-11T03:22:53.124Z,75.2
2017-06-11T03:23:53.104Z,74.62
2017-06-11T03:24:53.131Z,74.82
2017-06-11T03:25:53.362Z,74.91
2017-06-11T03:26:53.047Z,74.91
2017-06-11T03:27:53.021Z,74.91
2017-06-11T03:28:53.005Z,74.82
2017-06-11T03:29:52.977Z,75.2
2017-06-11T03:30:53.015Z,75.1
2017-06-11T03:31:52.947Z,75.1
2017-06-11T03:32:52.918Z,74.72
2017-06-11T03:33:52.897Z,74.62
2017-06-11T03:34:52.879Z,75.1
2017-06-11T03:35:52.863Z,74.62
2017-06-11T03:36:52.849Z,74.72
2017-06-11T03:37:52.870Z,74.52
2017-06-11T03:38:52.806Z,74.52
2017-06-11T03:39:52.781Z,74.15
2017-06-11T03:40:52.757Z,74.18
2017-06-11T03:41:52.735Z,74.37
2017-06-11T03:42:52.716Z,74.37
2017-06-11T03:43:52.696Z,74.47
2017-06-11T03:44:52.680Z,74.37
2017-06-11T03:45:52.660Z,74.37
2017-06-11T03:46:52.638Z,74.37
2017-06-11T03:47:52.669Z,73.9
2017-06-11T03:48:52.594Z,74.08
2017-06-11T03:49:52.581Z,73.51
2017-06-11T03:50:52.560Z,73.74
2017-06-11T03:51:52.542Z,74.02
2017-06-11T03:52:52.513Z,73.26
2017-06-11T03:53:52.495Z,73.45
2017-06-11T03:54:52.175Z,73.07
2017-06-11T03:55:52.505Z,73.07
2017-06-11T03:56:52.437Z,73.35
2017-06-11T03:57:52.414Z,72.88
2017-06-11T03:58:52.394Z,72.81
2017-06-11T03:59:52.377Z,73.1
2017-06-11T04:00:52.355Z,72.33
2017-06-11T04:01:52.337Z,72.14
2017-06-11T04:02:52.317Z,71.95
2017-06-11T04:03:52.301Z,72.05
2017-06-11T04:04:52.276Z,71.95
2017-06-11T04:05:52.257Z,71.76
2017-06-11T04:06:52.239Z,71.95
2017-06-11T04:07:52.222Z,71.76
2017-06-11T04:08:52.202Z,71.86
2017-06-11T04:09:52.178Z,71.76
2017-06-11T04:10:52.159Z,71.95
2017-06-11T04:11:52.143Z,71.86
2017-06-11T04:12:52.116Z,71.95
2017-06-11T04:13:52.103Z,71.95
2017-06-11T04:14:52.085Z,71.76
2017-06-11T04:15:52.059Z,71.95
2017-06-11T04:16:52.043Z,71.86
2017-06-11T04:17:52.022Z,71.95
2017-06-11T04:18:52.005Z,71.76
2017-06-11T04:19:51.983Z,71.76
2017-06-11T04:20:52.012Z,71.86
2017-06-11T04:21:51.949Z,72.14
2017-06-11T04:22:51.972Z,72.24
2017-06-11T04:23:51.908Z,72.24
2017-06-11T04:24:51.932Z,71.37
2017-06-11T04:25:51.859Z,71.12
2017-06-11T04:26:51.839Z,70.39
2017-06-11T04:27:51.822Z,69.72
2017-06-11T04:28:51.805Z,69.21
2017-06-11T04:29:51.786Z,68.73
2017-06-11T04:30:51.771Z,67.71
2017-06-11T04:31:51.744Z,67.83
2017-06-11T04:32:51.726Z,66.97
2017-06-11T04:33:51.705Z,66.07
2017-06-11T04:34:51.945Z,64.34
2017-06-11T04:35:51.673Z,63.76
2017-06-11T04:36:51.683Z,63.12
2017-06-11T04:37:51.636Z,63.41
2017-06-11T04:38:51.621Z,62.83
2017-06-11T04:39:51.600Z,62.73
2017-06-11T04:40:51.585Z,61.87
2017-06-11T04:41:51.566Z,62.06
2017-06-11T04:42:51.555Z,62.06
2017-06-11T04:43:51.534Z,61.68
2017-06-11T04:44:51.513Z,61.77
2017-06-11T04:45:51.497Z,61.51
2017-06-11T04:46:51.481Z,61.13
2017-06-11T04:47:51.464Z,60.74
2017-06-11T04:48:51.448Z,59.87
2017-06-11T04:49:51.430Z,60
2017-06-11T04:50:51.411Z,60.06
2017-06-11T04:51:51.391Z,60.16
2017-06-11T04:52:51.384Z,60.26
2017-06-11T04:53:51.363Z,60.35
2017-06-11T04:54:51.343Z,60.32
2017-06-11T04:55:51.326Z,61
2017-06-11T04:56:51.313Z,61.45
2017-06-11T04:57:51.295Z,60.77
2017-06-11T04:58:51.278Z,61.25
2017-06-11T04:59:51.257Z,61.65
2017-06-11T05:00:51.241Z,61.8
2017-06-11T05:01:51.223Z,61.8
2017-06-11T05:02:51.214Z,62.29
2017-06-11T05:03:51.187Z,62
2017-06-11T05:04:50.929Z,62.09
2017-06-11T05:05:51.165Z,62.38
2017-06-11T05:06:51.137Z,62.96
2017-06-11T05:07:51.122Z,62.29
2017-06-11T05:08:51.099Z,62
2017-06-11T05:09:51.081Z,62.19
2017-06-11T05:10:51.064Z,61.93
2017-06-11T05:11:51.049Z,61.83
2017-06-11T05:12:51.328Z,61.74
2017-06-11T05:13:51.021Z,61.1
2017-06-11T05:14:50.995Z,60.26
2017-06-11T05:15:50.977Z,59.8
2017-06-11T05:16:50.957Z,59.61
2017-06-11T05:17:50.945Z,59.61
2017-06-11T05:18:50.925Z,59.13
2017-06-11T05:19:50.917Z,58.87
2017-06-11T05:20:50.898Z,58.97
2017-06-11T05:21:50.873Z,59.13
2017-06-11T05:22:50.860Z,58.94
2017-06-11T05:23:50.842Z,58.94
2017-06-11T05:24:50.825Z,58.62
2017-06-11T05:25:50.817Z,58.62
2017-06-11T05:26:50.796Z,58.72
2017-06-11T05:27:50.777Z,59.1
2017-06-11T05:28:50.761Z,59.3
2017-06-11T05:29:50.739Z,59.1
2017-06-11T05:30:50.726Z,59.2
2017-06-11T05:31:50.712Z,58.91
2017-06-11T05:32:50.693Z,59.3
2017-06-11T05:33:50.926Z,59.39
2017-06-11T05:34:50.684Z,58.91
2017-06-11T05:35:50.641Z,59.2
2017-06-11T05:36:50.638Z,58.52
2017-06-11T05:37:50.607Z,59.2
2017-06-11T05:38:50.594Z,59
2017-06-11T05:39:50.583Z,59.36
2017-06-11T05:40:50.557Z,59.39
2017-06-11T05:41:50.540Z,59.48
2017-06-11T05:42:50.529Z,59.58
2017-06-11T05:43:50.514Z,59.3
2017-06-11T05:44:50.491Z,59.78
2017-06-11T05:45:50.605Z,59.58
2017-06-11T05:46:50.453Z,59.55
2017-06-11T05:47:50.437Z,59.55
2017-06-11T05:48:50.686Z,59.65
2017-06-11T05:49:50.402Z,59.75
2017-06-11T05:50:50.389Z,59.36
2017-06-11T05:51:50.369Z,59.36
2017-06-11T05:52:50.355Z,59.75
2017-06-11T05:53:50.339Z,59.94
2017-06-11T05:54:50.319Z,59.75
2017-06-11T05:55:50.299Z,60.03
2017-06-11T05:56:50.287Z,59.94
2017-06-11T05:57:50.267Z,60.52
2017-06-11T05:58:50.253Z,60.42
2017-06-11T05:59:50.230Z,60.13
2017-06-11T06:00:50.217Z,60.13
2017-06-11T06:01:50.204Z,60.52
2017-06-11T06:02:50.181Z,60.71
2017-06-11T06:03:50.163Z,60.52
2017-06-11T06:04:50.145Z,60.71
2017-06-11T06:05:50.126Z,61
2017-06-11T06:06:50.110Z,61.07
2017-06-11T06:07:50.093Z,60.87
2017-06-11T06:08:50.071Z,61.07
2017-06-11T06:09:50.058Z,61.07
2017-06-11T06:10:50.060Z,60.97
2017-06-11T06:11:50.024Z,60.9
2017-06-11T06:12:50.009Z,61
2017-06-11T06:13:49.987Z,60.9
2017-06-11T06:14:49.969Z,61.1
2017-06-11T06:15:49.949Z,61.16
2017-06-11T06:16:49.936Z,61.1
2017-06-11T06:17:49.917Z,60.97
2017-06-11T06:18:49.897Z,61.25
2017-06-11T06:19:49.927Z,61.19
2017-06-11T06:20:49.864Z,61.16
2017-06-11T06:21:49.548Z,61.19
2017-06-11T06:22:49.830Z,61.19
2017-06-11T06:23:49.811Z,60.8
2017-06-11T06:24:49.840Z,61.1
2017-06-11T06:25:49.775Z,61
2017-06-11T06:26:49.760Z,61.48
2017-06-11T06:27:49.743Z,61.48
2017-06-11T06:28:49.719Z,61.1
2017-06-11T06:29:49.702Z,60.61
2017-06-11T06:30:49.689Z,60.9
2017-06-11T06:31:49.670Z,60.52
2017-06-11T06:32:49.649Z,60.32
2017-06-11T06:33:49.637Z,60.32
2017-06-11T06:34:49.618Z,60.45
2017-06-11T06:35:49.601Z,60.8
2017-06-11T06:36:49.582Z,60.9
2017-06-11T06:37:49.564Z,60.61
2017-06-11T06:38:49.548Z,60.52
2017-06-11T06:39:49.530Z,60.52
2017-06-11T06:40:49.511Z,60.16
2017-06-11T06:41:49.493Z,60.35
2017-06-11T06:42:49.479Z,60.45
2017-06-11T06:43:49.470Z,59.48
2017-06-11T06:44:49.441Z,59.8
2017-06-11T06:45:49.425Z,59.61
2017-06-11T06:46:49.409Z,59.52
2017-06-11T06:47:49.391Z,59.23
2017-06-11T06:48:49.374Z,58.94
2017-06-11T06:49:49.357Z,58.55
2017-06-11T06:50:49.390Z,58.87
2017-06-11T06:51:49.322Z,58.45
2017-06-11T06:52:49.311Z,58.68
2017-06-11T06:53:48.991Z,58.1
2017-06-11T06:54:49.269Z,57.71
2017-06-11T06:55:49.259Z,58.51
2017-06-11T06:56:49.243Z,57.74
2017-06-11T06:57:49.223Z,58.12
2017-06-11T06:58:49.215Z,57.84
2017-06-11T06:59:49.190Z,58.22
2017-06-11T07:00:49.175Z,57.74
2017-06-11T07:01:49.159Z,57.64
2017-06-11T07:02:49.143Z,57.16
2017-06-11T07:03:49.125Z,57.16
2017-06-11T07:04:49.108Z,56.61
2017-06-11T07:05:49.095Z,56.41
2017-06-11T07:06:49.079Z,56.41
2017-06-11T07:07:49.060Z,55.93
2017-06-11T07:08:49.043Z,55.65
2017-06-11T07:09:49.028Z,55.19
2017-06-11T07:10:49.014Z,54.9
2017-06-11T07:11:48.998Z,54.05
2017-06-11T07:12:48.978Z,53.79
2017-06-11T07:13:48.972Z,52.46
2017-06-11T07:14:48.950Z,51.9
2017-06-11T07:15:48.937Z,49.92
2017-06-11T07:16:48.957Z,49.92
2017-06-11T07:17:48.915Z,48.78
2017-06-11T07:18:49.196Z,48.3
2017-06-11T07:19:48.884Z,47.81
2017-06-11T07:20:48.921Z,47.81
2017-06-11T07:21:48.867Z,47.74
2017-06-11T07:22:48.844Z,46.67
2017-06-11T07:23:48.837Z,47.06
2017-06-11T07:24:48.824Z,46.48
2017-06-11T07:25:48.811Z,46.67
2017-06-11T07:26:48.802Z,46.11
2017-06-11T07:27:48.783Z,46.21
2017-06-11T07:28:48.770Z,46.67
2017-06-11T07:29:49.009Z,46.77
2017-06-11T07:30:48.446Z,47.06
2017-06-11T07:31:48.733Z,46.67
2017-06-11T07:32:48.720Z,46.86
2017-06-11T07:33:48.712Z,46.41
2017-06-11T07:34:48.700Z,45.75
2017-06-11T07:35:48.685Z,45.45
2017-06-11T07:36:48.675Z,45.07
2017-06-11T07:37:48.662Z,45.09
2017-06-11T07:38:48.655Z,44.89
2017-06-11T07:39:48.637Z,44.99
2017-06-11T07:40:48.630Z,44.53
2017-06-11T07:41:48.610Z,44.14
2017-06-11T07:42:48.602Z,43.75
2017-06-11T07:43:48.592Z,43.85
2017-06-11T07:44:48.585Z,43.75
2017-06-11T07:45:48.570Z,43.48
2017-06-11T07:46:48.559Z,42.25
2017-06-11T07:47:48.601Z,41.79
2017-06-11T07:48:48.537Z,40.66
2017-06-11T07:49:48.523Z,39.22
2017-06-11T07:50:48.524Z,36.23
2017-06-11T07:51:48.209Z,36.82
2017-06-11T07:52:48.514Z,36.72
2017-06-11T07:53:48.497Z,36.34
2017-06-11T07:54:48.536Z,35.95
2017-06-11T07:55:48.479Z,35.09
2017-06-11T07:56:48.171Z,34.89
2017-06-11T07:57:48.468Z,35.09
2017-06-11T07:58:48.466Z,35.36
2017-06-11T07:59:48.473Z,34.97
2017-06-11T08:00:48.440Z,35.64
2017-06-11T08:01:48.436Z,35.84
2017-06-11T08:02:48.427Z,35.64
2017-06-11T08:03:48.428Z,34.97
2017-06-11T08:04:48.414Z,34.97
2017-06-11T08:05:48.405Z,34.96
2017-06-11T08:06:48.449Z,35.06
2017-06-11T08:07:48.394Z,34.97
2017-06-11T08:08:48.389Z,34.88
2017-06-11T08:09:48.429Z,35.35
2017-06-11T08:10:48.376Z,35.56
2017-06-11T08:11:48.366Z,34.67
2017-06-11T08:12:48.365Z,34.88
2017-06-11T08:13:48.348Z,34.97
2017-06-11T08:14:48.347Z,35.16
2017-06-11T08:15:48.337Z,35.06
2017-06-11T08:16:48.338Z,35.36
2017-06-11T08:17:48.319Z,34.11
2017-06-11T08:18:48.320Z,33.15
2017-06-11T08:19:48.308Z,33.07
2017-06-11T08:20:48.306Z,33.36
2017-06-11T08:21:48.307Z,32.4
2017-06-11T08:22:48.293Z,32.6
2017-06-11T08:23:48.288Z,32.58
2017-06-11T08:24:48.291Z,32.68
2017-06-11T08:25:48.339Z,32.68
2017-06-11T08:26:48.272Z,32.68
2017-06-11T08:27:48.515Z,32.48
2017-06-11T08:28:48.265Z,32.4
2017-06-11T08:29:48.255Z,31.93
2017-06-11T08:30:48.247Z,31.26
2017-06-11T08:31:48.245Z,30.29
2017-06-11T08:32:48.243Z,30.21
2017-06-11T08:33:48.238Z,29.73
2017-06-11T08:34:48.284Z,29.35
2017-06-11T08:35:48.233Z,29.06
2017-06-11T08:36:48.224Z,28.68
2017-06-11T08:37:48.220Z,28.2
2017-06-11T08:38:48.235Z,28.3
2017-06-11T08:39:48.218Z,27.53
2017-06-11T08:40:48.217Z,27.72
2017-06-11T08:41:48.213Z,27.25
2017-06-11T08:42:48.263Z,27.53
2017-06-11T08:43:48.206Z,27.04
2017-06-11T08:44:48.202Z,27.02
2017-06-11T08:45:48.231Z,27.22
2017-06-11T08:46:48.202Z,27.7
2017-06-11T08:47:48.206Z,28.29
2017-06-11T08:48:48.201Z,27.5
2017-06-11T08:49:48.194Z,27.4
2017-06-11T08:50:48.193Z,27.88
2017-06-11T08:51:48.187Z,27.98
2017-06-11T08:52:48.189Z,28.08
2017-06-11T08:53:48.185Z,27.5
2017-06-11T08:54:48.186Z,27.32
2017-06-11T08:55:48.184Z,26.64
2017-06-11T08:56:48.186Z,26.54
2017-06-11T08:57:48.232Z,26.45
2017-06-11T08:58:48.173Z,26.05
2017-06-11T08:59:48.170Z,25.77
2017-06-11T09:00:48.170Z,25.87
2017-06-11T09:01:48.165Z,25.56
2017-06-11T09:02:48.217Z,26.64
2017-06-11T09:03:48.208Z,26.15
2017-06-11T09:04:48.157Z,26.35
2017-06-11T09:05:48.157Z,26.63
2017-06-11T09:06:48.153Z,26.45
2017-06-11T09:07:48.158Z,26.54
2017-06-11T09:08:48.151Z,25.95
2017-06-11T09:09:48.156Z,25.56
2017-06-11T09:10:48.146Z,25.95
2017-06-11T09:11:48.147Z,26.54
2017-06-11T09:12:48.142Z,26.53
2017-06-11T09:13:48.153Z,26.92
2017-06-11T09:14:48.146Z,26.43
2017-06-11T09:15:48.141Z,27.01
2017-06-11T09:16:48.139Z,27.29
2017-06-11T09:17:48.136Z,27.37
2017-06-11T09:18:48.129Z,28.06
2017-06-11T09:19:48.123Z,28.54
2017-06-11T09:20:48.123Z,28.64
2017-06-11T09:21:48.376Z,29.31
2017-06-11T09:22:48.116Z,29.11
2017-06-11T09:23:48.106Z,29.02
2017-06-11T09:24:48.101Z,29.41
2017-06-11T09:25:48.098Z,29.39
2017-06-11T09:26:48.107Z,29.59
2017-06-11T09:27:48.088Z,29.58
2017-06-11T09:28:48.083Z,29.48
2017-06-11T09:29:48.083Z,29.85
2017-06-11T09:30:47.766Z,30.16
2017-06-11T09:31:48.066Z,30.44
2017-06-11T09:32:48.060Z,30.26
2017-06-11T09:33:48.062Z,30.16
2017-06-11T09:34:48.051Z,30.26
2017-06-11T09:35:48.040Z,30.26
2017-06-11T09:36:48.037Z,29.68
2017-06-11T09:37:48.033Z,29.58
2017-06-11T09:38:48.032Z,29.28
2017-06-11T09:39:48.021Z,29.38
2017-06-11T09:40:48.014Z,29
2017-06-11T09:41:48.010Z,29.38
2017-06-11T09:42:48.007Z,29.28
2017-06-11T09:43:47.997Z,29.08
2017-06-11T09:44:47.991Z,29.66
2017-06-11T09:45:47.984Z,29.64
2017-06-11T09:46:47.985Z,29.64
2017-06-11T09:47:47.978Z,29.46
2017-06-11T09:48:47.971Z,29.56
2017-06-11T09:49:47.963Z,29.64
2017-06-11T09:50:47.958Z,30.05
2017-06-11T09:51:48.001Z,29.17
2017-06-11T09:52:47.939Z,29.66
2017-06-11T09:53:47.938Z,29.68
2017-06-11T09:54:47.630Z,29.18
2017-06-11T09:55:47.919Z,29.48
2017-06-11T09:56:47.917Z,29.58
2017-06-11T09:57:47.921Z,29.58
2017-06-11T09:58:47.899Z,29.48
2017-06-11T09:59:47.900Z,29.49
2017-06-11T10:00:47.894Z,28.51
2017-06-11T10:01:47.882Z,28.43
2017-06-11T10:02:47.877Z,28.44
2017-06-11T10:03:47.885Z,28.34
2017-06-11T10:04:47.869Z,27.67
2017-06-11T10:05:47.866Z,28.08
2017-06-11T10:06:47.863Z,27.29
2017-06-11T10:07:47.854Z,27.5
2017-06-11T10:08:47.852Z,27.29
2017-06-11T10:09:47.843Z,26.7
2017-06-11T10:10:47.536Z,27.29
2017-06-11T10:11:47.840Z,27.08
2017-06-11T10:12:47.534Z,27.46
2017-06-11T10:13:47.523Z,27.46
2017-06-11T10:14:47.821Z,27.45
2017-06-11T10:15:47.807Z,28.02
2017-06-11T10:16:47.805Z,28.51
2017-06-11T10:17:47.811Z,28.79
2017-06-11T10:18:47.799Z,29.18
2017-06-11T10:19:47.795Z,29.08
2017-06-11T10:20:47.785Z,28.89
2017-06-11T10:21:47.790Z,29.28
2017-06-11T10:22:47.773Z,29.38
2017-06-11T10:23:47.774Z,29.36
2017-06-11T10:24:47.771Z,29.36
2017-06-11T10:25:47.755Z,29.46
2017-06-11T10:26:47.774Z,29.66
2017-06-11T10:27:47.740Z,29.95
2017-06-11T10:28:47.739Z,30.33
2017-06-11T10:29:47.734Z,30.23
2017-06-11T10:30:47.730Z,30.13
2017-06-11T10:31:47.713Z,30.04
2017-06-11T10:32:47.711Z,30.62
2017-06-11T10:33:47.749Z,29.64
2017-06-11T10:34:47.688Z,30.04
2017-06-11T10:35:47.677Z,30.43
2017-06-11T10:36:47.674Z,30.43
2017-06-11T10:37:47.664Z,30.04
2017-06-11T10:38:47.661Z,29.56
2017-06-11T10:39:47.650Z,29.55
2017-06-11T10:40:47.645Z,29.93
2017-06-11T10:41:47.887Z,30.22
2017-06-11T10:42:47.628Z,30.2
2017-06-11T10:43:47.621Z,30.3
2017-06-11T10:44:47.613Z,30.12
2017-06-11T10:45:47.609Z,30.61
2017-06-11T10:46:47.302Z,30.33
2017-06-11T10:47:47.659Z,29.17
2017-06-11T10:48:47.590Z,29.17
2017-06-11T10:49:47.576Z,29.27
2017-06-11T10:50:47.572Z,29.56
2017-06-11T10:51:47.573Z,29.48
2017-06-11T10:52:47.588Z,28.99
2017-06-11T10:53:47.548Z,28.51
2017-06-11T10:54:47.545Z,28.31
2017-06-11T10:55:47.541Z,28.12
2017-06-11T10:56:47.534Z,28.03
2017-06-11T10:57:47.527Z,27.92
2017-06-11T10:58:47.522Z,28.31
2017-06-11T10:59:47.510Z,28.31
2017-06-11T11:00:47.559Z,28.5
2017-06-11T11:01:47.518Z,28.69
2017-06-11T11:02:47.492Z,29.07
2017-06-11T11:03:47.490Z,29.27
2017-06-11T11:04:47.184Z,29.74
2017-06-11T11:05:47.477Z,29.06
2017-06-11T11:06:47.470Z,29.91
2017-06-11T11:07:47.461Z,30.4
2017-06-11T11:08:47.453Z,30.38
2017-06-11T11:09:47.446Z,30.58
2017-06-11T11:10:47.437Z,29.9
2017-06-11T11:11:47.428Z,30.3
2017-06-11T11:12:47.423Z,30.38
2017-06-11T11:13:47.465Z,30.1
2017-06-11T11:14:47.415Z,30.4
2017-06-11T11:15:47.397Z,29.91
2017-06-11T11:16:47.390Z,29.42
2017-06-11T11:17:47.394Z,29.61
2017-06-11T11:18:47.373Z,29.13
2017-06-11T11:19:47.368Z,28.83
2017-06-11T11:20:47.373Z,29.32
2017-06-11T11:21:47.354Z,29.22
2017-06-11T11:22:47.347Z,29.41
2017-06-11T11:23:47.341Z,29.02
2017-06-11T11:24:47.324Z,29.13
2017-06-11T11:25:47.316Z,29.13
2017-06-11T11:26:47.318Z,29.22
2017-06-11T11:27:47.308Z,29.42
2017-06-11T11:28:47.289Z,29.42
2017-06-11T11:29:47.287Z,29.11
2017-06-11T11:30:47.278Z,29.11
2017-06-11T11:31:47.266Z,29.02
2017-06-11T11:32:47.251Z,29.13
2017-06-11T11:33:47.250Z,29.52
2017-06-11T11:34:46.942Z,29.03
2017-06-11T11:35:47.228Z,29.13
2017-06-11T11:36:47.225Z,28.92
2017-06-11T11:37:47.212Z,29.41
2017-06-11T11:38:47.211Z,29.21
2017-06-11T11:39:47.193Z,29.7
2017-06-11T11:40:47.182Z,29.41
2017-06-11T11:41:47.235Z,29.41
2017-06-11T11:42:47.162Z,29.59
2017-06-11T11:43:47.152Z,29.3
2017-06-11T11:44:47.143Z,29.69
2017-06-11T11:45:47.131Z,29.69
2017-06-11T11:46:47.127Z,29.59
2017-06-11T11:47:47.164Z,30.08
2017-06-11T11:48:47.107Z,29.59
2017-06-11T11:49:47.089Z,29.88
2017-06-11T11:50:46.785Z,30.18
2017-06-11T11:51:47.079Z,30.18
2017-06-11T11:52:47.062Z,29.49
2017-06-11T11:53:47.055Z,29.59
2017-06-11T11:54:47.046Z,29.59
2017-06-11T11:55:47.034Z,29.49
2017-06-11T11:56:46.727Z,29.39
2017-06-11T11:57:46.740Z,29.9
2017-06-11T11:58:47.009Z,29.59
2017-06-11T11:59:46.993Z,29.79
2017-06-11T12:00:46.684Z,29.49
2017-06-11T12:01:47.037Z,29.8
2017-06-11T12:02:46.974Z,29.88
2017-06-11T12:03:46.953Z,30.27
2017-06-11T12:04:46.936Z,30.08
2017-06-11T12:05:46.929Z,30.47
2017-06-11T12:06:46.922Z,30.27
2017-06-11T12:07:46.914Z,30.37
2017-06-11T12:08:46.906Z,30.27
2017-06-11T12:09:46.902Z,29.98
2017-06-11T12:10:46.882Z,29.96
2017-06-11T12:11:46.879Z,30.06
2017-06-11T12:12:46.869Z,29.86
2017-06-11T12:13:46.902Z,30.35
2017-06-11T12:14:46.839Z,30.45
2017-06-11T12:15:46.879Z,30.16
2017-06-11T12:16:46.815Z,30.18
2017-06-11T12:17:46.803Z,30.47
2017-06-11T12:18:46.796Z,29.98
2017-06-11T12:19:46.481Z,30.35
2017-06-11T12:20:46.775Z,30.37
2017-06-11T12:21:46.786Z,30.08
2017-06-11T12:22:46.765Z,30.47
2017-06-11T12:23:46.449Z,30.16
2017-06-11T12:24:46.743Z,30.16
2017-06-11T12:25:46.724Z,30.16
2017-06-11T12:26:46.718Z,30.35
2017-06-11T12:27:46.701Z,30.35
2017-06-11T12:28:46.689Z,30.37
2017-06-11T12:29:46.730Z,29.88
2017-06-11T12:30:46.669Z,30.66
2017-06-11T12:31:46.659Z,30.18
2017-06-11T12:32:46.652Z,30.18
2017-06-11T12:33:46.641Z,30.18
2017-06-11T12:34:46.628Z,30.47
2017-06-11T12:35:46.619Z,30.18
2017-06-11T12:36:46.602Z,30.27
2017-06-11T12:37:46.601Z,30.47
2017-06-11T12:38:46.586Z,30.66
2017-06-11T12:39:46.574Z,29.88
2017-06-11T12:40:46.611Z,29.98
2017-06-11T12:41:46.550Z,30.27
2017-06-11T12:42:46.546Z,30.35
2017-06-11T12:43:46.530Z,29.98
2017-06-11T12:44:46.219Z,29.69
2017-06-11T12:45:46.515Z,29.88
2017-06-11T12:46:46.497Z,29.18
2017-06-11T12:47:46.483Z,29.95
2017-06-11T12:48:46.481Z,30.26
2017-06-11T12:49:46.475Z,29.96
2017-06-11T12:50:46.465Z,30.65
2017-06-11T12:51:46.455Z,30.35
2017-06-11T12:52:46.438Z,30.65
2017-06-11T12:53:46.423Z,30.37
2017-06-11T12:54:46.414Z,30.65
2017-06-11T12:55:46.399Z,30.57